Time;durP1;ratioP1;P1;durP2;ratioP2;P2;SDS_P1;SDS_P2;PMS_P1;PMS_P2;Temp;Humidity;BMP_temperature;BMP_pressure;BME280_temperature;BME280_humidity;BME280_pressure;Samples;Min_cycle;Max_cycle;Signal;HPM_P1;HPM_P2
2023/02/14 00:00:02;;;;;;;67.57;19.47;;;1.90;99.90;;;;;;5053201;28;20047;-66
2023/02/14 00:02:27;;;;;;;57.10;20.42;;;1.90;99.90;;;;;;5054381;28;20047;-66
2023/02/14 00:04:53;;;;;;;48.30;19.87;;;2.20;99.90;;;;;;5054507;28;20100;-66
2023/02/14 00:07:18;;;;;;;71.67;17.43;;;2.30;99.90;;;;;;5053974;28;20477;-66
2023/02/14 00:09:44;;;;;;;70.60;19.87;;;2.10;99.90;;;;;;5054291;28;20045;-66
2023/02/14 00:12:10;;;;;;;52.30;19.07;;;1.90;99.90;;;;;;5054170;28;20040;-66
2023/02/14 00:17:19;;;;;;;48.38;18.10;;;2.00;99.90;;;;;;5054146;28;20043;-66
2023/02/14 00:19:45;;;;;;;48.13;18.80;;;2.00;99.90;;;;;;5054105;28;20108;-66
2023/02/14 00:22:11;;;;;;;42.47;20.00;;;2.00;99.90;;;;;;5053273;28;20079;-66
2023/02/14 00:24:36;;;;;;;57.83;17.80;;;2.10;99.90;;;;;;5053716;28;20029;-66
2023/02/14 00:27:02;;;;;;;47.83;17.40;;;2.20;99.90;;;;;;5053658;28;20047;-67
2023/02/14 00:29:30;;;;;;;46.40;17.70;;;2.20;99.90;;;;;;5053339;28;20553;-67
2023/02/14 00:31:56;;;;;;;37.63;17.90;;;2.30;99.90;;;;;;5053236;28;20455;-67
2023/02/14 00:34:21;;;;;;;43.00;17.85;;;2.40;99.90;;;;;;5053416;28;20029;-65
2023/02/14 00:36:47;;;;;;;43.10;18.97;;;2.20;99.90;;;;;;5054160;28;20068;-66
2023/02/14 00:39:14;;;;;;;39.50;18.15;;;2.20;99.90;;;;;;5053602;28;20033;-66
2023/02/14 00:41:41;;;;;;;45.13;17.30;;;2.20;99.90;;;;;;5053428;28;20481;-65
2023/02/14 00:44:08;;;;;;;63.17;17.92;;;2.30;99.90;;;;;;5052397;28;20024;-66
2023/02/14 00:46:34;;;;;;;35.60;17.50;;;2.30;99.90;;;;;;5053676;28;20466;-65
2023/02/14 00:49:00;;;;;;;42.10;17.45;;;2.20;99.90;;;;;;5053394;28;20464;-65
2023/02/14 00:51:25;;;;;;;38.17;18.07;;;2.20;99.90;;;;;;5052993;28;20021;-66
2023/02/14 00:53:51;;;;;;;37.53;17.33;;;2.20;99.90;;;;;;5053751;28;20326;-66
2023/02/14 00:56:19;;;;;;;38.00;16.67;;;2.10;99.90;;;;;;5053753;28;20021;-67
2023/02/14 00:58:45;;;;;;;34.28;15.82;;;2.30;99.90;;;;;;5053128;28;20131;-66
2023/02/14 01:01:11;;;;;;;34.80;16.38;;;2.40;99.90;;;;;;5053414;28;20033;-66
2023/02/14 01:03:37;;;;;;;;;;;2.50;99.90;;;;;;5055340;28;20094;-66
2023/02/14 01:06:03;;;;;;;26.50;13.48;;;2.60;99.90;;;;;;5053993;28;19908;-66
2023/02/14 01:08:29;;;;;;;29.65;14.20;;;2.30;99.90;;;;;;5053442;28;20531;-67
2023/02/14 01:10:55;;;;;;;27.48;14.50;;;2.40;99.90;;;;;;5053280;28;20111;-66
2023/02/14 01:13:21;;;;;;;31.20;14.87;;;2.40;99.90;;;;;;5052785;28;20028;-66
2023/02/14 01:15:50;;;;;;;38.90;14.30;;;2.30;99.90;;;;;;5052566;28;20271;-66
2023/02/14 01:18:18;;;;;;;38.25;14.85;;;2.30;99.90;;;;;;5053401;28;20389;-66
2023/02/14 01:20:43;;;;;;;46.15;14.95;;;2.20;99.90;;;;;;5052805;28;20520;-67
2023/02/14 01:23:09;;;;;;;30.42;16.00;;;2.20;99.90;;;;;;5052580;28;20045;-67
2023/02/14 01:25:38;;;;;;;34.60;15.23;;;2.20;99.90;;;;;;5054080;28;20037;-66
2023/02/14 01:28:05;;;;;;;34.38;16.20;;;2.30;99.90;;;;;;5053980;28;20025;-66
2023/02/14 01:30:31;;;;;;;;;;;2.30;99.90;;;;;;5053816;28;20021;-66
2023/02/14 01:32:56;;;;;;;39.42;16.02;;;2.30;99.90;;;;;;5052784;28;20320;-66
2023/02/14 01:35:22;;;;;;;36.03;15.33;;;2.20;99.90;;;;;;5089421;22;20067;-69
2023/02/14 01:37:48;;;;;;;46.63;16.20;;;2.20;99.90;;;;;;5072693;28;20450;-70
2023/02/14 01:40:14;;;;;;;32.38;15.30;;;2.20;99.90;;;;;;5073607;28;20025;-69
2023/02/14 01:42:39;;;;;;;47.15;16.15;;;2.10;99.90;;;;;;5072245;28;20086;-69
2023/02/14 01:45:21;;;;;;;49.13;16.97;;;2.00;99.90;;;;;;5084530;28;20110;-69
2023/02/14 01:47:52;;;;;;;35.22;16.42;;;1.80;99.90;;;;;;5094101;28;20028;-70
2023/02/14 01:50:24;;;;;;;34.50;16.80;;;2.00;99.90;;;;;;5092555;28;20111;-70
2023/02/14 01:52:57;;;;;;;31.17;15.57;;;2.00;99.90;;;;;;5093960;28;20028;-69
2023/02/14 01:55:26;;;;;;;32.35;16.02;;;2.20;99.90;;;;;;5092427;28;20115;-69
2023/02/14 01:58:02;;;;;;;32.22;15.60;;;2.20;99.90;;;;;;5093848;28;20027;-70
2023/02/14 02:03:12;;;;;;;32.20;16.08;;;2.30;99.90;;;;;;5094086;28;20384;-70
2023/02/14 02:05:44;;;;;;;30.38;16.48;;;2.20;99.90;;;;;;5078684;28;20048;-69
2023/02/14 02:08:10;;;;;;;32.33;15.25;;;2.20;99.90;;;;;;5072454;28;20029;-69
2023/02/14 02:10:36;;;;;;;34.30;14.70;;;2.40;99.90;;;;;;5072229;28;20044;-70
2023/02/14 02:13:06;;;;;;;29.90;15.93;;;2.20;99.90;;;;;;5072160;28;20489;-70
2023/02/14 02:15:41;;;;;;;29.45;15.15;;;2.00;99.90;;;;;;5072570;28;20029;-69
2023/02/14 02:18:18;;;;;;;31.38;15.80;;;2.10;99.90;;;;;;5072216;28;20026;-70
2023/02/14 02:21:07;;;;;;;32.20;15.40;;;2.10;99.90;;;;;;5090608;28;20207;-69
2023/02/14 02:23:54;;;;;;;27.73;14.15;;;2.00;99.90;;;;;;5092243;28;20025;-69
2023/02/14 02:26:48;;;;;;;66.13;16.23;;;1.90;99.90;;;;;;5092600;28;20500;-70
2023/02/14 02:29:46;;;;;;;42.80;16.67;;;1.80;99.90;;;;;;5095858;28;20036;-69
2023/02/14 02:32:45;;;;;;;65.30;16.10;;;1.60;99.90;;;;;;5097596;28;20020;-69
2023/02/14 02:35:34;;;;;;;29.88;15.05;;;1.60;99.90;;;;;;5095448;28;20039;-69
2023/02/14 02:38:29;;;;;;;42.17;16.35;;;1.60;99.90;;;;;;5097610;28;20096;-69
2023/02/14 02:41:29;;;;;;;31.92;15.13;;;1.60;99.90;;;;;;5070879;28;20035;-70
2023/02/14 02:44:15;;;;;;;30.33;14.48;;;1.50;99.90;;;;;;5096873;28;20036;-68
2023/02/14 02:47:03;;;;;;;28.83;16.13;;;1.90;99.90;;;;;;5095793;28;20101;-69
2023/02/14 02:56:44;;;;;;;28.65;14.80;;;2.00;99.90;;;;;;5099374;28;20034;-69
2023/02/14 02:58:25;;;;;;;27.92;14.43;;;2.00;99.90;;;;;;5096468;28;20028;-68
2023/02/14 03:00:53;;;;;;;29.55;15.65;;;2.00;99.90;;;;;;5095708;28;20085;-70
2023/02/14 03:06:06;;;;;;;35.17;15.52;;;2.10;99.90;;;;;;5078160;28;20539;-70
2023/02/14 03:08:31;;;;;;;27.40;14.97;;;2.10;99.90;;;;;;5074686;28;20029;-69
2023/02/14 03:10:58;;;;;;;31.93;15.67;;;2.10;99.90;;;;;;5076049;28;20025;-69
2023/02/14 03:14:02;;;;;;;28.63;14.15;;;2.20;99.90;;;;;;5074823;28;20028;-69
2023/02/14 03:16:56;;;;;;;31.23;16.38;;;2.30;99.90;;;;;;5076397;28;20120;-70
2023/02/14 03:22:29;;;;;;;37.58;15.90;;;2.10;99.90;;;;;;5077458;28;20099;-69
2023/02/14 03:25:02;;;;;;;34.28;17.60;;;2.10;99.90;;;;;;5079059;28;20025;-69
2023/02/14 03:27:42;;;;;;;30.40;15.55;;;2.00;99.90;;;;;;5077223;28;20451;-70
2023/02/14 03:30:25;;;;;;;37.67;16.88;;;1.90;99.90;;;;;;5078514;28;20091;-69
2023/02/14 03:32:58;;;;;;;41.03;16.55;;;1.90;99.90;;;;;;5079018;28;20068;-70
2023/02/14 03:35:39;;;;;;;28.27;15.45;;;1.70;99.90;;;;;;5090384;28;20032;-69
2023/02/14 03:38:20;;;;;;;38.78;16.60;;;1.70;99.90;;;;;;5100253;28;20094;-69
2023/02/14 03:40:53;;;;;;;29.23;15.20;;;1.60;99.90;;;;;;5127667;28;20028;-69
2023/02/14 03:43:28;;;;;;;36.83;13.75;;;1.60;99.90;;;;;;5109497;28;20084;-70
2023/02/14 03:46:01;;;;;;;30.40;15.27;;;1.50;99.90;;;;;;5101120;28;20027;-69
2023/02/14 03:48:29;;;;;;;28.88;14.82;;;1.40;99.90;;;;;;5098360;28;20020;-68
2023/02/14 03:50:56;;;;;;;32.33;14.60;;;1.30;99.90;;;;;;5095992;28;20491;-69
2023/02/14 03:53:26;;;;;;;30.67;14.82;;;1.30;99.90;;;;;;5096209;28;20036;-70
2023/02/14 03:56:01;;;;;;;43.80;16.00;;;1.30;99.90;;;;;;5112399;28;20110;-68
2023/02/14 03:58:31;;;;;;;28.50;14.35;;;1.30;99.90;;;;;;5095532;28;20392;-69
2023/02/14 04:01:03;;;;;;;36.47;14.70;;;1.20;99.90;;;;;;5097539;28;20032;-69
2023/02/14 04:03:31;;;;;;;34.08;14.55;;;1.20;99.90;;;;;;5102885;28;20024;-70
2023/02/14 04:05:57;;;;;;;32.13;16.45;;;1.20;99.90;;;;;;5083359;28;20484;-71
2023/02/14 04:08:25;;;;;;;32.90;15.90;;;1.30;99.90;;;;;;5080199;28;20047;-70
2023/02/14 04:10:52;;;;;;;35.05;14.27;;;1.30;99.90;;;;;;5078256;28;20031;-69
2023/02/14 04:13:18;;;;;;;36.05;14.32;;;1.20;99.90;;;;;;5079517;28;20025;-70
2023/02/14 04:15:44;;;;;;;24.52;13.73;;;1.10;99.90;;;;;;5082026;28;20031;-70
2023/02/14 04:20:54;;;;;;;27.17;13.93;;;1.00;99.90;;;;;;5080606;28;20462;-69
2023/02/14 04:23:19;;;;;;;27.93;13.93;;;1.10;99.90;;;;;;5076181;28;20037;-69
2023/02/14 04:25:45;;;;;;;31.20;14.70;;;1.10;99.90;;;;;;5074570;28;20024;-69
2023/02/14 04:28:11;;;;;;;54.90;14.63;;;1.10;99.90;;;;;;5075270;28;20021;-70
2023/02/14 04:30:37;;;;;;;27.88;13.90;;;1.00;99.90;;;;;;5073961;28;20025;-70
2023/02/14 04:33:03;;;;;;;27.58;14.00;;;1.00;99.90;;;;;;5073686;28;20047;-69
2023/02/14 04:35:29;;;;;;;32.67;14.77;;;1.00;99.90;;;;;;5087051;28;20040;-70
2023/02/14 04:37:54;;;;;;;28.77;14.80;;;1.00;99.90;;;;;;5094689;28;20485;-71
2023/02/14 04:40:20;;;;;;;29.47;14.73;;;0.90;99.90;;;;;;5095740;28;20293;-70
2023/02/14 04:42:46;;;;;;;28.43;13.87;;;1.00;99.90;;;;;;5098903;28;20031;-69
2023/02/14 04:45:11;;;;;;;28.27;14.35;;;1.10;99.90;;;;;;5099093;28;20023;-69
2023/02/14 04:47:37;;;;;;;27.15;13.65;;;1.00;99.90;;;;;;5098815;28;20028;-70
2023/02/14 04:50:03;;;;;;;26.75;13.00;;;1.00;99.90;;;;;;5096562;28;20054;-70
2023/02/14 04:52:29;;;;;;;28.35;13.63;;;1.00;99.90;;;;;;5099937;28;20036;-70
2023/02/14 04:54:55;;;;;;;29.73;14.63;;;1.00;99.90;;;;;;5098995;28;20024;-70
2023/02/14 04:57:21;;;;;;;34.03;14.73;;;1.00;99.90;;;;;;5097428;28;20404;-70
2023/02/14 04:59:46;;;;;;;29.63;15.45;;;1.00;99.90;;;;;;5097251;28;20472;-70
2023/02/14 05:02:12;;;;;;;28.37;14.27;;;1.00;99.90;;;;;;5095232;28;20035;-70
2023/02/14 05:04:37;;;;;;;28.33;14.53;;;1.00;99.90;;;;;;5087614;28;20013;-70
2023/02/14 05:07:03;;;;;;;31.23;14.80;;;1.10;99.90;;;;;;5074955;28;20077;-70
2023/02/14 05:09:29;;;;;;;27.83;12.95;;;1.20;99.90;;;;;;5074270;28;20363;-71
2023/02/14 05:11:54;;;;;;;30.40;15.47;;;1.20;99.90;;;;;;5073617;28;20028;-69
2023/02/14 05:14:20;;;;;;;30.50;14.83;;;1.20;99.90;;;;;;5073073;28;20085;-69
2023/02/14 05:16:45;;;;;;;34.83;14.27;;;1.10;99.90;;;;;;5074645;28;20370;-69
2023/02/14 05:19:11;;;;;;;39.57;15.03;;;1.00;99.90;;;;;;5072897;28;20025;-70
2023/02/14 05:21:37;;;;;;;26.60;13.73;;;1.00;99.90;;;;;;5074959;28;20099;-70
2023/02/14 05:24:03;;;;;;;26.15;14.45;;;1.10;99.90;;;;;;5074263;28;20024;-70
2023/02/14 05:26:29;;;;;;;26.52;13.52;;;1.00;99.90;;;;;;5073629;28;20021;-70
2023/02/14 05:28:55;;;;;;;27.15;14.63;;;1.10;99.90;;;;;;5073298;28;20392;-69
2023/02/14 05:31:21;;;;;;;24.55;13.20;;;1.20;99.90;;;;;;5072417;28;20024;-69
2023/02/14 05:33:46;;;;;;;26.70;14.80;;;1.10;99.90;;;;;;5073022;28;20067;-69
2023/02/14 05:36:12;;;;;;;24.10;13.37;;;1.00;99.90;;;;;;5093641;28;20075;-69
2023/02/14 05:38:37;;;;;;;26.93;14.50;;;1.10;99.90;;;;;;5075206;28;20085;-69
2023/02/14 05:41:03;;;;;;;28.97;15.57;;;0.90;99.90;;;;;;5072712;28;20388;-70
2023/02/14 05:43:29;;;;;;;33.80;15.93;;;0.90;99.90;;;;;;5073930;28;20028;-69
2023/02/14 05:45:55;;;;;;;33.65;16.00;;;0.70;99.90;;;;;;5072695;28;20292;-69
2023/02/14 05:48:21;;;;;;;30.38;15.85;;;0.60;99.90;;;;;;5072971;28;20116;-69
2023/02/14 05:50:46;;;;;;;35.23;17.57;;;0.60;99.90;;;;;;5074025;28;20155;-70
2023/02/14 05:53:13;;;;;;;45.17;17.35;;;0.60;99.90;;;;;;5075138;28;20051;-69
2023/02/14 05:55:38;;;;;;;37.97;17.98;;;0.40;99.90;;;;;;5077309;28;20040;-69
2023/02/14 05:58:04;;;;;;;36.25;18.10;;;0.30;99.90;;;;;;5075558;28;20021;-69
2023/02/14 06:00:30;;;;;;;42.37;18.63;;;0.20;99.90;;;;;;5078318;28;20037;-69
2023/02/14 06:02:55;;;;;;;38.78;18.20;;;0.10;99.90;;;;;;5082436;28;20453;-70
2023/02/14 06:05:21;;;;;;;44.67;18.90;;;0.10;99.90;;;;;;5078382;28;20024;-69
2023/02/14 06:07:50;;;;;;;42.53;20.23;;;0.10;99.90;;;;;;5077622;28;20028;-69
2023/02/14 06:10:17;;;;;;;42.38;19.33;;;0.10;99.90;;;;;;5077119;28;20021;-70
2023/02/14 06:12:42;;;;;;;45.95;20.60;;;0.10;99.90;;;;;;5102570;28;20511;-70
2023/02/14 06:15:08;;;;;;;43.17;20.77;;;0.10;99.90;;;;;;5079785;28;20029;-70
2023/02/14 06:17:34;;;;;;;43.07;19.70;;;0.10;99.90;;;;;;5077700;28;20031;-69
2023/02/14 06:19:59;;;;;;;45.80;20.67;;;0.10;99.90;;;;;;5076913;28;20138;-69
2023/02/14 06:22:25;;;;;;;46.43;20.37;;;0.20;99.90;;;;;;5077630;28;20491;-69
2023/02/14 06:24:50;;;;;;;45.53;20.30;;;0.20;99.90;;;;;;5077587;28;20020;-69
2023/02/14 06:27:16;;;;;;;43.63;20.03;;;0.20;99.90;;;;;;5076472;28;20048;-69
2023/02/14 06:29:41;;;;;;;45.13;20.67;;;0.20;99.90;;;;;;5075587;28;20477;-70
2023/02/14 06:32:07;;;;;;;46.67;21.83;;;0.40;99.90;;;;;;5076184;28;20119;-70
2023/02/14 06:34:33;;;;;;;42.67;19.87;;;0.50;99.90;;;;;;5080667;28;20070;-69
2023/02/14 06:37:00;;;;;;;44.35;20.67;;;0.50;99.90;;;;;;5096822;28;20107;-70
2023/02/14 06:39:30;;;;;;;40.78;18.63;;;0.50;99.90;;;;;;5093366;28;20028;-70
2023/02/14 06:42:18;;;;;;;38.97;18.67;;;0.50;99.90;;;;;;5089236;28;20466;-70
2023/02/14 06:44:49;;;;;;;40.50;19.25;;;0.50;99.90;;;;;;5095456;28;20387;-69
2023/02/14 06:47:15;;;;;;;37.80;18.83;;;0.40;99.90;;;;;;5095364;28;20048;-69
2023/02/14 06:49:41;;;;;;;42.53;20.02;;;0.30;99.90;;;;;;5095134;28;20503;-71
2023/02/14 06:52:07;;;;;;;40.30;19.33;;;0.40;99.90;;;;;;5095244;28;20032;-70
2023/02/14 06:54:32;;;;;;;41.70;18.90;;;0.30;99.90;;;;;;5094970;28;20024;-70
2023/02/14 06:56:58;;;;;;;45.80;20.47;;;0.30;99.90;;;;;;5096332;28;20046;-70
2023/02/14 06:59:23;;;;;;;44.77;20.27;;;0.40;99.90;;;;;;5087371;28;20037;-69
2023/02/14 07:01:49;;;;;;;41.60;19.13;;;0.50;99.90;;;;;;5071889;28;20031;-70
2023/02/14 07:04:16;;;;;;;41.27;20.07;;;0.70;99.90;;;;;;5056469;28;20477;-69
2023/02/14 07:06:42;;;;;;;41.53;19.25;;;0.80;99.90;;;;;;5071442;28;20437;-69
2023/02/14 07:09:07;;;;;;;42.60;18.83;;;0.90;99.90;;;;;;5055903;28;20028;-69
2023/02/14 07:11:33;;;;;;;41.33;18.73;;;0.90;99.90;;;;;;5071849;28;20396;-69
2023/02/14 07:13:58;;;;;;;40.63;19.43;;;1.00;99.90;;;;;;5055691;28;20032;-69
2023/02/14 07:16:24;;;;;;;45.37;19.90;;;0.90;99.90;;;;;;5071960;28;20025;-70
2023/02/14 07:18:50;;;;;;;40.90;19.35;;;0.80;99.90;;;;;;5072453;28;20032;-70
2023/02/14 07:21:15;;;;;;;38.50;18.93;;;0.80;99.90;;;;;;5076222;28;20025;-71
2023/02/14 07:23:45;;;;;;;39.40;18.80;;;0.80;99.90;;;;;;5057721;28;20546;-70
2023/02/14 07:26:10;;;;;;;38.45;18.45;;;0.80;99.90;;;;;;5056024;28;20060;-69
2023/02/14 07:28:36;;;;;;;41.53;19.97;;;0.80;99.90;;;;;;5057093;28;20407;-71
2023/02/14 07:31:02;;;;;;;43.03;19.67;;;0.80;99.90;;;;;;5057500;28;20044;-71
2023/02/14 07:33:28;;;;;;;48.47;21.35;;;0.70;99.90;;;;;;5057473;28;20040;-70
2023/02/14 07:35:53;;;;;;;47.88;21.05;;;0.70;99.90;;;;;;5091332;28;20063;-71
2023/02/14 07:38:19;;;;;;;50.07;22.67;;;0.60;99.90;;;;;;5095502;28;20024;-72
2023/02/14 07:40:45;;;;;;;50.67;21.53;;;0.60;99.90;;;;;;5096284;28;20039;-72
2023/02/14 07:43:10;;;;;;;43.87;20.27;;;0.50;99.90;;;;;;5085684;28;20123;-72
2023/02/14 07:45:36;;;;;;;45.72;22.50;;;0.60;99.90;;;;;;5075447;28;20031;-71
2023/02/14 07:48:02;;;;;;;47.07;21.67;;;0.60;99.90;;;;;;5075221;28;20025;-71
2023/02/14 07:50:28;;;;;;;49.23;22.23;;;0.60;99.90;;;;;;5073636;28;20107;-72
2023/02/14 07:52:54;;;;;;;48.70;21.38;;;0.70;99.90;;;;;;5075393;28;20384;-72
2023/02/14 07:55:23;;;;;;;52.58;22.70;;;0.70;99.90;;;;;;5073720;28;20039;-72
2023/02/14 07:57:49;;;;;;;46.00;20.80;;;0.80;99.90;;;;;;5075091;28;20089;-72
2023/02/14 08:00:15;;;;;;;50.53;22.23;;;0.90;99.90;;;;;;5074824;28;20540;-72
2023/02/14 08:02:40;;;;;;;44.80;20.70;;;1.00;99.90;;;;;;5073623;28;20020;-72
2023/02/14 08:05:06;;;;;;;46.07;22.43;;;1.10;99.90;;;;;;5083047;28;20028;-71
2023/02/14 08:07:32;;;;;;;46.03;22.52;;;1.10;99.90;;;;;;5095435;28;20031;-71
2023/02/14 08:09:58;;;;;;;55.37;22.00;;;1.00;99.90;;;;;;5096209;28;20024;-71
2023/02/14 08:17:52;;;;;;;46.47;21.30;;;1.20;99.90;;;;;;5095770;28;20035;-72
2023/02/14 08:20:17;;;;;;;46.33;21.40;;;1.30;99.90;;;;;;5094737;28;20036;-71
2023/02/14 08:22:43;;;;;;;45.23;22.07;;;1.30;99.90;;;;;;5093506;28;20122;-73
2023/02/14 08:25:09;;;;;;;47.17;21.33;;;1.30;99.90;;;;;;5093608;28;20032;-72
2023/02/14 08:27:34;;;;;;;45.47;21.90;;;1.40;99.90;;;;;;5095008;28;20059;-71
2023/02/14 08:30:00;;;;;;;43.87;21.30;;;1.40;99.90;;;;;;5094705;28;20822;-71
2023/02/14 08:32:25;;;;;;;42.93;21.70;;;1.50;99.90;;;;;;5094431;28;20035;-72
2023/02/14 08:34:51;;;;;;;42.47;20.00;;;1.60;99.90;;;;;;5094320;28;20040;-72
2023/02/14 08:37:16;;;;;;;40.37;20.20;;;1.70;99.90;;;;;;5094970;28;20090;-72
2023/02/14 08:39:42;;;;;;;43.57;20.00;;;1.80;99.90;;;;;;5093946;28;20028;-72
2023/02/14 08:42:07;;;;;;;44.10;20.83;;;1.80;99.90;;;;;;5093364;28;20114;-71
2023/02/14 08:44:33;;;;;;;45.17;21.47;;;1.90;99.90;;;;;;5094845;28;20028;-72
2023/02/14 08:46:58;;;;;;;40.40;19.17;;;1.80;99.90;;;;;;5095780;28;20020;-71
2023/02/14 08:49:24;;;;;;;43.73;20.77;;;1.90;99.90;;;;;;5090119;28;20389;-71
2023/02/14 08:51:49;;;;;;;46.73;21.63;;;1.80;99.90;;;;;;5073305;28;20036;-71
2023/02/14 08:54:15;;;;;;;43.53;20.73;;;1.80;99.90;;;;;;5072740;28;20028;-71
2023/02/14 08:56:41;;;;;;;41.77;20.53;;;1.80;99.90;;;;;;5074306;28;20066;-71
2023/02/14 08:59:06;;;;;;;46.75;21.05;;;1.90;99.90;;;;;;5073345;28;20024;-71
2023/02/14 09:01:32;;;;;;;41.80;20.93;;;1.80;99.90;;;;;;5072413;28;20120;-71
2023/02/14 09:03:57;;;;;;;44.77;21.27;;;1.80;99.90;;;;;;5074505;28;20056;-70
2023/02/14 09:06:23;;;;;;;43.00;19.63;;;1.80;99.90;;;;;;5093821;28;20035;-72
2023/02/14 09:08:49;;;;;;;44.77;20.13;;;1.80;99.90;;;;;;5094058;28;20104;-72
2023/02/14 09:11:21;;;;;;;39.83;20.60;;;1.90;99.90;;;;;;5092648;28;20024;-72
2023/02/14 09:13:48;;;;;;;44.05;21.58;;;2.00;99.90;;;;;;5094824;28;20028;-72
2023/02/14 09:16:16;;;;;;;44.20;20.83;;;2.00;99.90;;;;;;5092751;28;20503;-71
2023/02/14 09:18:42;;;;;;;45.58;21.23;;;2.00;99.90;;;;;;5093945;28;20028;-72
2023/02/14 09:21:10;;;;;;;39.70;19.52;;;2.10;99.90;;;;;;5095387;28;20024;-72
2023/02/14 09:23:36;;;;;;;45.80;21.55;;;2.10;99.90;;;;;;5096167;28;20392;-72
2023/02/14 09:26:04;;;;;;;45.90;22.15;;;2.20;99.90;;;;;;5093765;28;20027;-72
2023/02/14 09:28:30;;;;;;;38.28;19.73;;;2.20;99.90;;;;;;5099819;28;20024;-71
2023/02/14 09:30:56;;;;;;;39.20;19.77;;;2.20;99.90;;;;;;5092961;28;20016;-72
2023/02/14 09:33:23;;;;;;;52.35;25.63;;;2.10;99.90;;;;;;5094318;28;20469;-72
2023/02/14 09:35:49;;;;;;;40.53;19.40;;;2.10;99.90;;;;;;5096756;28;20438;-72
2023/02/14 09:38:18;;;;;;;41.93;20.30;;;2.00;99.90;;;;;;5088243;28;20043;-72
2023/02/14 09:40:45;;;;;;;40.20;19.92;;;2.00;99.90;;;;;;5073222;28;20274;-72
2023/02/14 09:43:37;;;;;;;41.20;21.05;;;2.10;99.90;;;;;;5071034;28;20032;-72
2023/02/14 09:46:05;;;;;;;41.40;19.75;;;2.10;99.90;;;;;;5055799;28;20029;-70
2023/02/14 09:48:35;;;;;;;42.55;20.17;;;2.20;99.90;;;;;;5054237;28;20584;-72
2023/02/14 09:51:14;;;;;;;40.45;19.58;;;2.20;99.90;;;;;;5053335;28;20412;-71
2023/02/14 09:53:52;;;;;;;41.00;20.13;;;2.30;99.90;;;;;;5053228;28;20024;-71
2023/02/14 09:56:54;;;;;;;45.95;20.58;;;2.30;99.90;;;;;;5061520;28;20025;-72
2023/02/14 09:59:44;;;;;;;41.35;20.60;;;2.20;99.90;;;;;;5052205;28;20029;-70
2023/02/14 10:02:45;;;;;;;43.10;19.92;;;2.10;99.90;;;;;;5072620;28;20056;-71
2023/02/14 10:05:23;;;;;;;38.35;20.25;;;2.10;99.90;;;;;;5082301;28;20028;-72
2023/02/14 10:07:57;;;;;;;44.78;19.88;;;2.30;99.90;;;;;;5109055;28;20024;-72
2023/02/14 10:10:29;;;;;;;42.03;20.70;;;2.40;99.90;;;;;;5092506;28;20460;-72
2023/02/14 10:13:30;;;;;;;43.30;22.05;;;2.50;99.90;;;;;;5108906;28;20028;-71
2023/02/14 10:16:02;;;;;;;48.53;21.83;;;2.70;99.90;;;;;;5083723;28;20476;-73
2023/02/14 10:18:45;;;;;;;39.60;20.95;;;2.80;99.90;;;;;;5071865;28;20039;-72
2023/02/14 10:21:22;;;;;;;42.85;21.33;;;2.70;99.90;;;;;;5072578;28;20024;-71
2023/02/14 10:24:08;;;;;;;42.63;21.42;;;2.70;99.90;;;;;;5074118;28;20029;-73
2023/02/14 10:26:40;;;;;;;45.25;22.25;;;2.70;99.90;;;;;;5073840;28;20021;-72
2023/02/14 10:29:10;;;;;;;43.33;22.63;;;2.70;99.90;;;;;;5053781;28;20024;-72
2023/02/14 10:31:57;;;;;;;43.90;21.33;;;2.70;99.90;;;;;;5051616;28;20028;-71
2023/02/14 10:34:32;;;;;;;48.42;26.27;;;2.80;99.90;;;;;;5075168;28;20092;-72
2023/02/14 10:37:14;;;;;;;40.83;21.38;;;3.00;99.90;;;;;;5091666;28;20027;-71
2023/02/14 10:39:46;;;;;;;44.65;24.38;;;3.00;99.90;;;;;;5093700;28;20024;-72
2023/02/14 10:42:45;;;;;;;35.30;18.98;;;3.00;99.90;;;;;;5093404;28;20052;-72
2023/02/14 10:45:21;;;;;;;41.47;21.40;;;3.10;99.90;;;;;;5093141;28;20500;-71
2023/02/14 10:47:57;;;;;;;37.45;21.27;;;3.20;99.90;;;;;;5091692;28;20028;-72
2023/02/14 10:50:30;;;;;;;41.60;20.80;;;3.40;99.90;;;;;;5112131;28;20020;-71
2023/02/14 10:53:14;;;;;;;40.97;21.65;;;3.50;99.90;;;;;;5076030;28;20413;-72
2023/02/14 10:55:53;;;;;;;37.85;20.38;;;3.40;99.90;;;;;;5076483;28;20380;-72
2023/02/14 10:58:21;;;;;;;38.80;20.90;;;3.50;99.90;;;;;;5075365;28;20377;-72
2023/02/14 11:01:04;;;;;;;38.90;21.02;;;3.70;99.90;;;;;;5076436;28;20104;-72
2023/02/14 11:03:31;;;;;;;38.25;20.42;;;3.70;99.90;;;;;;5075234;28;20025;-71
2023/02/14 11:05:57;;;;;;;37.83;20.25;;;3.50;99.90;;;;;;5092991;28;20695;-71
2023/02/14 11:08:40;;;;;;;37.27;20.23;;;3.40;99.90;;;;;;5096706;28;20052;-72
2023/02/14 11:11:29;;;;;;;37.67;20.98;;;3.40;99.90;;;;;;5095452;28;20020;-72
2023/02/14 11:13:54;;;;;;;40.58;20.45;;;3.40;99.90;;;;;;5096211;28;20028;-72
2023/02/14 11:16:35;;;;;;;41.07;21.10;;;3.40;99.90;;;;;;5096188;28;20605;-73
2023/02/14 11:19:18;;;;;;;37.72;20.27;;;3.40;99.90;;;;;;5096129;28;20262;-71
2023/02/14 11:21:45;;;;;;;41.22;20.90;;;3.50;99.90;;;;;;5096001;28;20385;-72
2023/02/14 11:24:27;;;;;;;39.20;20.88;;;3.60;99.90;;;;;;5094529;28;20081;-72
2023/02/14 11:26:57;;;;;;;41.53;21.98;;;3.60;99.90;;;;;;5095972;28;20028;-72
2023/02/14 11:29:29;;;;;;;39.55;20.25;;;3.80;99.90;;;;;;5095285;28;20016;-72
2023/02/14 11:31:55;;;;;;;36.90;20.83;;;3.80;99.90;;;;;;5096129;28;20024;-72
2023/02/14 11:34:39;;;;;;;41.25;20.15;;;3.80;99.90;;;;;;5095556;28;20028;-71
2023/02/14 11:37:27;;;;;;;42.55;19.85;;;3.90;99.90;;;;;;5095779;28;20028;-71
2023/02/14 11:39:56;;;;;;;34.83;19.42;;;3.90;99.90;;;;;;5111413;28;20109;-73
2023/02/14 11:42:34;;;;;;;40.72;20.02;;;3.90;99.90;;;;;;5094255;28;20105;-72
2023/02/14 11:45:00;;;;;;;38.20;20.67;;;3.90;99.90;;;;;;5094718;28;20021;-71
2023/02/14 11:47:29;;;;;;;41.47;21.00;;;3.90;99.90;;;;;;5096111;28;20026;-71
2023/02/14 11:50:22;;;;;;;40.78;21.77;;;4.10;99.90;;;;;;5096791;28;20023;-73
2023/02/14 11:52:54;;;;;;;39.40;21.90;;;4.10;99.90;;;;;;5093902;28;20024;-72
2023/02/14 11:55:32;;;;;;;42.15;21.55;;;4.20;99.90;;;;;;5095828;28;20072;-72
2023/02/14 11:58:00;;;;;;;39.80;22.13;;;4.40;99.90;;;;;;5096250;28;20112;-71
2023/02/14 12:00:28;;;;;;;40.05;21.92;;;4.80;99.90;;;;;;5087473;28;20051;-72
2023/02/14 12:02:55;;;;;;;41.20;21.33;;;5.00;99.90;;;;;;5075979;28;20020;-72
2023/02/14 12:05:42;;;;;;;40.20;22.15;;;5.10;99.90;;;;;;5063325;28;20104;-72
2023/02/14 12:08:08;;;;;;;37.40;20.77;;;5.10;99.90;;;;;;5054930;28;20079;-71
2023/02/14 12:10:39;;;;;;;37.45;21.20;;;5.10;99.90;;;;;;5054964;28;20040;-72
2023/02/14 12:13:07;;;;;;;38.25;21.45;;;5.10;99.90;;;;;;5054775;28;20036;-72
2023/02/14 12:15:34;;;;;;;36.50;19.90;;;5.10;99.90;;;;;;5054564;28;20056;-72
2023/02/14 12:18:34;;;;;;;37.20;20.10;;;5.10;99.90;;;;;;5059758;28;20029;-71
2023/02/14 12:21:27;;;;;;;32.83;19.27;;;5.10;99.90;;;;;;5059012;28;20389;-71
2023/02/14 12:24:17;;;;;;;36.50;19.55;;;5.20;99.90;;;;;;5064490;28;20028;-71
2023/02/14 12:27:16;;;;;;;36.00;20.42;;;5.00;99.90;;;;;;5070464;28;20017;-72
2023/02/14 12:30:06;;;;;;;36.30;19.55;;;5.10;99.90;;;;;;5029869;28;20033;-71
2023/02/14 12:32:33;;;;;;;42.17;20.80;;;5.00;99.90;;;;;;5031408;28;20033;-72
2023/02/14 12:35:27;;;;;;;37.97;20.80;;;5.00;99.90;;;;;;5031240;28;20097;-73
2023/02/14 12:38:22;;;;;;;39.88;21.98;;;5.10;99.90;;;;;;5027298;28;20049;-71
2023/02/14 12:41:06;;;;;;;41.58;22.60;;;5.40;99.90;;;;;;5020051;28;20037;-70
2023/02/14 12:43:44;;;;;;;39.60;20.75;;;5.50;99.90;;;;;;5032280;28;20029;-69
2023/02/14 12:46:47;;;;;;;41.15;21.48;;;5.40;99.90;;;;;;5032237;28;20435;-72
2023/02/14 12:49:21;;;;;;;36.78;20.13;;;5.30;99.90;;;;;;5032034;28;20149;-72
2023/02/14 12:52:13;;;;;;;37.83;20.92;;;5.20;99.90;;;;;;5031734;28;20025;-72
2023/02/14 12:55:06;;;;;;;37.22;20.48;;;5.30;99.90;;;;;;5028661;28;20497;-75
2023/02/14 12:57:52;;;;;;;37.03;19.85;;;5.20;99.90;;;;;;5032170;28;20044;-71
2023/02/14 13:00:25;;;;;;;34.83;19.40;;;5.30;99.90;;;;;;5031755;28;20067;-73
2023/02/14 13:03:07;;;;;;;40.55;22.17;;;5.40;99.90;;;;;;5031996;28;20097;-68
2023/02/14 13:06:00;;;;;;;40.30;21.13;;;5.30;99.90;;;;;;5031903;28;20021;-69
2023/02/14 13:08:42;;;;;;;39.13;22.00;;;5.00;99.90;;;;;;5093459;28;20020;-69
2023/02/14 13:11:17;;;;;;;38.53;20.67;;;5.10;99.90;;;;;;5091531;28;20030;-69
2023/02/14 13:14:04;;;;;;;40.22;21.95;;;5.30;99.90;;;;;;5093512;28;20099;-70
2023/02/14 13:16:34;;;;;;;40.58;21.10;;;5.50;99.90;;;;;;5094128;28;20023;-68
2023/02/14 13:19:10;;;;;;;38.33;21.23;;;5.60;99.90;;;;;;5093581;28;20024;-70
2023/02/14 13:21:37;;;;;;;40.53;20.55;;;5.70;99.90;;;;;;5092057;28;20115;-69
2023/02/14 13:24:24;;;;;;;39.10;21.55;;;5.50;99.90;;;;;;5092314;28;20388;-68